Terminal Aerodrome Forecast
Issued by NWS Greer, SC

Home | Current Version | Previous Version | Text Only | Print | Product List | Glossary On
Versions: 1 2 3 4 5 6 7 8 9 10 11 12 13 14 15 16 17 18 19
000
FTUS42 KGSP 262335
TAFAVL
TAF
KAVL 262335Z 2700/2724 30004KT P6SM FEW200
     FM271000 VRB02KT P6SM FEW050 SCT200
     FM271400 30008KT P6SM SCT050
     FM271700 21010G18KT P6SM BKN050 PROB30 2718/2724 4SM TSRA
      OVC035CB=

USA.gov is the U.S. government's official web portal to all federal, state and local government web resources and services.